Time;durP1;ratioP1;P1;durP2;ratioP2;P2;SDS_P1;SDS_P2;PMS_P1;PMS_P2;Temp;Humidity;BMP_temperature;BMP_pressure;BME280_temperature;BME280_humidity;BME280_pressure;Samples;Min_cycle;Max_cycle;Signal;HPM_P1;HPM_P2
2021/03/12 00:00:07;;;;;;;0.90;0.90;;;5.20;98.00;;;;;;5044094;28;20197;-88
2021/03/12 00:02:34;;;;;;;0.80;0.80;;;5.10;98.30;;;;;;5042013;28;20214;-86
2021/03/12 00:05:00;;;;;;;0.83;0.70;;;5.20;98.10;;;;;;5042072;28;20569;-85
2021/03/12 00:07:26;;;;;;;0.90;0.90;;;5.10;98.50;;;;;;5042173;28;20225;-86
2021/03/12 00:09:53;;;;;;;0.70;0.70;;;5.10;98.10;;;;;;5050660;28;20616;-84
2021/03/12 00:12:19;;;;;;;1.60;1.50;;;5.20;97.90;;;;;;5035678;28;20337;-88
2021/03/12 00:14:46;;;;;;;1.10;1.10;;;5.20;97.90;;;;;;5047356;28;20688;-84
2021/03/12 00:17:13;;;;;;;0.80;0.80;;;5.30;97.60;;;;;;5032924;28;20304;-83
2021/03/12 00:19:39;;;;;;;0.80;0.80;;;5.30;97.50;;;;;;5040539;28;20202;-84
2021/03/12 00:22:06;;;;;;;0.80;0.80;;;5.40;97.80;;;;;;5038033;28;20222;-85
2021/03/12 00:24:32;;;;;;;0.80;0.80;;;5.50;97.20;;;;;;5016430;28;20202;-86
2021/03/12 00:26:59;;;;;;;0.70;0.70;;;5.50;97.20;;;;;;5053985;28;20225;-87
2021/03/12 00:29:26;;;;;;;0.70;0.70;;;5.50;97.00;;;;;;5025669;28;20714;-84
2021/03/12 00:31:52;;;;;;;0.87;0.87;;;5.50;96.90;;;;;;5026572;28;20595;-86
2021/03/12 00:34:20;;;;;;;0.73;0.73;;;5.50;97.10;;;;;;5040280;28;20623;-84
2021/03/12 00:36:46;;;;;;;0.90;0.80;;;5.50;97.10;;;;;;5050633;28;20315;-85
2021/03/12 00:39:13;;;;;;;1.00;1.00;;;5.40;97.10;;;;;;5040752;28;20197;-87
2021/03/12 00:41:39;;;;;;;1.40;0.80;;;5.50;96.80;;;;;;5054937;28;20681;-87
2021/03/12 00:44:06;;;;;;;0.97;0.90;;;5.50;96.90;;;;;;5044448;28;20826;-86
2021/03/12 00:46:32;;;;;;;1.33;0.80;;;5.50;97.00;;;;;;5036162;28;20227;-86
2021/03/12 00:48:59;;;;;;;1.10;0.80;;;5.50;96.80;;;;;;5029110;28;20220;-85
2021/03/12 00:51:26;;;;;;;0.77;0.70;;;5.60;96.30;;;;;;5053431;28;20220;-87
2021/03/12 00:53:52;;;;;;;1.37;1.27;;;5.50;96.20;;;;;;5051090;28;20198;-85
2021/03/12 00:56:19;;;;;;;0.80;0.80;;;5.60;96.50;;;;;;5057265;28;20631;-84
2021/03/12 00:58:46;;;;;;;0.80;0.80;;;5.60;96.00;;;;;;5044030;28;20202;-88
2021/03/12 01:01:12;;;;;;;1.00;0.90;;;5.60;96.20;;;;;;5046008;28;20198;-85
2021/03/12 01:03:38;;;;;;;1.10;0.90;;;5.60;96.80;;;;;;5047007;28;20209;-87
2021/03/12 01:06:05;;;;;;;2.10;1.00;;;5.60;96.30;;;;;;5033632;28;20218;-86
2021/03/12 01:08:33;;;;;;;0.90;0.90;;;5.60;96.20;;;;;;5038481;28;20262;-84
2021/03/12 01:10:59;;;;;;;1.27;1.00;;;5.60;96.10;;;;;;5054770;28;20212;-83
2021/03/12 01:13:25;;;;;;;1.77;1.00;;;5.50;96.20;;;;;;5033619;28;20537;-89
2021/03/12 01:15:52;;;;;;;1.60;0.90;;;5.60;96.00;;;;;;5038404;28;20297;-88
2021/03/12 01:18:18;;;;;;;1.10;1.00;;;5.70;95.50;;;;;;5054930;28;20221;-87
2021/03/12 01:20:45;;;;;;;1.37;0.80;;;5.60;95.20;;;;;;5048675;28;20197;-85
2021/03/12 01:23:11;;;;;;;2.40;1.07;;;5.60;95.20;;;;;;5042683;28;20253;-85
2021/03/12 01:25:40;;;;;;;0.70;0.70;;;5.70;95.50;;;;;;5045086;28;20255;-86
2021/03/12 01:28:07;;;;;;;1.20;1.10;;;5.70;95.50;;;;;;5051601;28;20228;-87
2021/03/12 01:30:36;;;;;;;0.70;0.70;;;5.60;95.20;;;;;;5051106;28;20210;-85
2021/03/12 01:33:03;;;;;;;2.47;1.00;;;5.60;95.90;;;;;;5046063;28;20221;-89
2021/03/12 01:35:30;;;;;;;0.90;0.90;;;5.50;96.20;;;;;;5044137;28;20205;-85
2021/03/12 01:37:56;;;;;;;0.80;0.70;;;5.50;96.60;;;;;;5032320;28;20247;-84
2021/03/12 01:40:24;;;;;;;0.90;0.90;;;5.50;96.50;;;;;;5045346;28;20213;-83
2021/03/12 01:42:52;;;;;;;0.73;0.70;;;5.30;96.70;;;;;;5056193;28;20229;-86
2021/03/12 01:45:21;;;;;;;1.23;0.87;;;5.30;97.30;;;;;;5054714;28;20208;-84
2021/03/12 01:47:48;;;;;;;1.67;0.80;;;5.20;97.00;;;;;;5047353;28;20256;-84
2021/03/12 01:50:15;;;;;;;0.80;0.80;;;5.10;97.20;;;;;;5046867;28;20198;-85
2021/03/12 01:52:43;;;;;;;0.70;0.70;;;5.00;97.70;;;;;;5049369;28;20218;-88
2021/03/12 01:55:15;;;;;;;0.80;0.80;;;4.90;98.60;;;;;;5065383;28;20205;-89
2021/03/12 01:57:42;;;;;;;0.60;0.60;;;4.80;98.20;;;;;;5063927;28;20721;-91
2021/03/12 02:00:11;;;;;;;1.13;1.07;;;4.80;98.70;;;;;;5045787;28;20220;-86
2021/03/12 02:02:39;;;;;;;0.80;0.80;;;4.90;98.50;;;;;;5029356;28;20238;-87
2021/03/12 02:05:07;;;;;;;1.30;1.20;;;4.90;98.90;;;;;;5041528;28;20209;-90
2021/03/12 02:07:34;;;;;;;0.80;0.80;;;4.80;98.80;;;;;;5029868;28;20305;-86
2021/03/12 02:10:00;;;;;;;0.70;0.70;;;4.80;97.80;;;;;;5005370;28;20203;-84
2021/03/12 02:12:33;;;;;;;0.80;0.80;;;4.80;98.00;;;;;;5057546;28;20648;-82
2021/03/12 02:15:09;;;;;;;0.80;0.80;;;4.60;98.10;;;;;;5043925;28;20255;-86
2021/03/12 02:17:42;;;;;;;2.40;0.87;;;4.60;98.40;;;;;;5051061;28;20217;-81
2021/03/12 02:20:30;;;;;;;1.13;1.13;;;4.60;98.10;;;;;;5036005;28;20647;-86
2021/03/12 02:23:09;;;;;;;0.50;0.50;;;4.60;97.60;;;;;;5029900;28;20248;-84
2021/03/12 02:25:38;;;;;;;0.80;0.53;;;4.70;97.50;;;;;;5050359;28;20264;-84
2021/03/12 02:28:06;;;;;;;0.60;0.60;;;4.70;96.90;;;;;;5045451;28;20229;-86
2021/03/12 02:30:33;;;;;;;0.67;0.60;;;4.70;96.50;;;;;;5044576;28;20198;-85
2021/03/12 02:33:01;;;;;;;1.03;0.73;;;4.70;95.70;;;;;;5048792;28;20221;-89
2021/03/12 02:35:28;;;;;;;4.47;0.80;;;4.70;96.00;;;;;;5036101;28;20712;-84
2021/03/12 02:37:56;;;;;;;0.70;0.70;;;4.70;95.60;;;;;;5037089;28;20221;-84
2021/03/12 02:40:23;;;;;;;1.03;1.00;;;4.70;95.00;;;;;;5029899;28;20198;-86
2021/03/12 02:42:50;;;;;;;2.37;0.93;;;4.80;95.70;;;;;;5027530;28;20226;-88
2021/03/12 02:45:20;;;;;;;2.07;0.90;;;4.70;95.00;;;;;;5044851;28;20201;-84
2021/03/12 02:47:47;;;;;;;0.90;0.90;;;4.70;95.20;;;;;;5029712;28;20248;-84
2021/03/12 02:50:15;;;;;;;1.63;0.87;;;4.70;95.80;;;;;;5024016;28;20633;-85
2021/03/12 02:52:43;;;;;;;0.80;0.73;;;4.70;95.70;;;;;;5037138;28;20225;-85
2021/03/12 02:55:12;;;;;;;1.60;1.50;;;4.80;95.00;;;;;;5035616;28;20233;-88
2021/03/12 02:57:40;;;;;;;0.83;0.83;;;4.90;95.10;;;;;;5024517;28;20229;-90
2021/03/12 03:00:08;;;;;;;1.93;0.90;;;4.90;94.60;;;;;;5034519;28;20664;-87
2021/03/12 03:02:36;;;;;;;2.70;1.10;;;4.80;94.60;;;;;;5045980;28;20215;-86
2021/03/12 03:05:04;;;;;;;1.30;1.00;;;4.80;94.30;;;;;;5019615;28;20204;-85
2021/03/12 03:07:31;;;;;;;0.80;0.80;;;4.80;93.70;;;;;;5040390;28;20256;-85
2021/03/12 03:09:58;;;;;;;1.47;0.80;;;4.80;93.90;;;;;;5052068;28;20197;-85
2021/03/12 03:12:26;;;;;;;0.90;0.80;;;4.80;94.00;;;;;;5037256;28;20696;-86
2021/03/12 03:14:57;;;;;;;1.30;0.73;;;4.80;93.90;;;;;;5041018;28;20210;-89
2021/03/12 03:17:23;;;;;;;1.03;0.80;;;4.80;93.90;;;;;;5020859;28;20224;-86
2021/03/12 03:19:52;;;;;;;1.57;1.27;;;4.80;93.70;;;;;;5030563;28;20205;-85
2021/03/12 03:22:20;;;;;;;1.60;1.30;;;4.80;94.00;;;;;;5001175;28;20531;-87
2021/03/12 03:24:47;;;;;;;1.73;1.03;;;4.80;93.80;;;;;;5043258;28;20460;-87
2021/03/12 03:27:14;;;;;;;1.53;1.00;;;4.80;93.60;;;;;;5031996;28;20233;-85
2021/03/12 03:29:43;;;;;;;1.27;0.70;;;4.80;93.70;;;;;;5043339;28;20202;-88
2021/03/12 03:32:10;;;;;;;2.20;0.90;;;4.80;93.80;;;;;;5044739;28;20680;-84
2021/03/12 03:34:36;;;;;;;1.27;0.90;;;4.80;94.30;;;;;;5036991;28;20205;-85
2021/03/12 03:37:04;;;;;;;0.70;0.70;;;4.80;94.10;;;;;;5034065;28;20233;-85
2021/03/12 03:39:30;;;;;;;1.63;0.80;;;4.90;94.10;;;;;;5043245;28;20210;-87
2021/03/12 03:42:01;;;;;;;1.60;0.90;;;4.80;94.20;;;;;;5047257;28;20224;-84
2021/03/12 03:44:30;;;;;;;0.77;0.77;;;4.80;94.60;;;;;;5038968;28;20212;-86
2021/03/12 03:47:00;;;;;;;1.00;0.83;;;4.80;94.70;;;;;;5023154;28;20653;-86
2021/03/12 03:49:28;;;;;;;1.33;0.87;;;4.90;94.80;;;;;;5030292;28;20210;-88
2021/03/12 03:51:55;;;;;;;1.63;0.80;;;4.90;94.50;;;;;;5034723;28;20227;-85
2021/03/12 03:54:23;;;;;;;0.90;0.80;;;5.10;93.80;;;;;;5017721;28;20206;-87
2021/03/12 03:56:50;;;;;;;1.37;0.60;;;5.20;93.80;;;;;;5046100;28;20263;-85
2021/03/12 03:59:18;;;;;;;1.00;1.00;;;5.20;93.70;;;;;;5032645;28;20206;-85
2021/03/12 04:01:46;;;;;;;1.97;1.10;;;5.20;93.60;;;;;;5028756;28;20228;-85
2021/03/12 04:04:13;;;;;;;1.47;0.90;;;5.20;93.60;;;;;;5032721;28;20217;-85
2021/03/12 04:06:42;;;;;;;1.13;1.03;;;5.20;93.80;;;;;;5038895;28;20941;-85
2021/03/12 04:09:12;;;;;;;1.27;1.10;;;5.30;93.80;;;;;;5048464;28;20657;-86
2021/03/12 04:11:39;;;;;;;0.80;0.80;;;5.20;94.00;;;;;;5048003;28;20776;-85
2021/03/12 04:14:07;;;;;;;1.97;1.10;;;5.40;92.60;;;;;;5026310;28;20201;-85
2021/03/12 04:16:34;;;;;;;1.93;1.00;;;5.50;92.50;;;;;;5049801;28;20704;-86
2021/03/12 04:19:02;;;;;;;2.37;1.17;;;5.50;92.50;;;;;;5056605;28;20224;-88
2021/03/12 04:21:28;;;;;;;2.77;1.20;;;5.60;92.00;;;;;;5051946;28;20243;-90
2021/03/12 04:23:56;;;;;;;1.90;1.00;;;5.60;92.00;;;;;;5041120;28;20231;-85
2021/03/12 04:26:24;;;;;;;1.23;0.70;;;5.60;92.00;;;;;;5009858;28;20239;-85
2021/03/12 04:28:52;;;;;;;2.00;0.97;;;5.60;92.30;;;;;;5028751;28;20674;-87
2021/03/12 04:31:19;;;;;;;2.33;1.40;;;5.50;92.50;;;;;;5048534;28;20229;-89
2021/03/12 04:33:45;;;;;;;1.63;1.00;;;5.50;92.50;;;;;;5050219;28;20202;-85
2021/03/12 04:36:14;;;;;;;1.17;1.00;;;5.50;92.60;;;;;;5029280;28;20247;-90
2021/03/12 04:38:40;;;;;;;2.17;1.10;;;5.50;92.70;;;;;;5019678;28;20296;-85
2021/03/12 04:41:07;;;;;;;1.37;1.20;;;5.50;92.80;;;;;;5037321;28;20677;-88
2021/03/12 04:43:34;;;;;;;1.00;0.87;;;5.50;93.30;;;;;;5054413;28;20194;-88
2021/03/12 04:46:02;;;;;;;2.30;0.87;;;5.40;92.50;;;;;;5031197;28;20232;-86
2021/03/12 04:48:30;;;;;;;1.70;0.87;;;5.40;92.20;;;;;;5057664;28;20205;-83
2021/03/12 04:50:57;;;;;;;2.40;1.00;;;5.30;91.90;;;;;;5044360;28;20206;-83
2021/03/12 04:53:24;;;;;;;1.60;1.20;;;5.20;91.50;;;;;;5050889;28;20687;-83
2021/03/12 04:55:51;;;;;;;3.00;1.10;;;5.30;91.60;;;;;;5045577;28;20214;-86
2021/03/12 04:58:18;;;;;;;1.60;1.07;;;5.30;90.90;;;;;;5028962;28;20332;-88
2021/03/12 05:00:44;;;;;;;2.73;1.13;;;5.40;91.40;;;;;;5041090;28;20198;-84
2021/03/12 05:03:11;;;;;;;1.73;1.33;;;5.40;91.60;;;;;;5051789;28;20589;-87
2021/03/12 05:05:39;;;;;;;1.77;1.10;;;5.30;91.80;;;;;;5044995;28;20201;-84
2021/03/12 05:08:09;;;;;;;2.20;1.20;;;5.20;92.70;;;;;;5043440;28;20221;-88
2021/03/12 05:10:36;;;;;;;2.20;1.30;;;5.00;92.80;;;;;;5027741;28;20473;-85
2021/03/12 05:13:03;;;;;;;1.77;1.20;;;5.00;93.20;;;;;;5052007;28;20559;-86
2021/03/12 05:15:30;;;;;;;1.70;1.03;;;5.00;93.20;;;;;;5054481;28;20214;-88
2021/03/12 05:17:56;;;;;;;3.03;0.90;;;4.80;93.50;;;;;;5041144;28;20229;-85
2021/03/12 05:20:25;;;;;;;3.53;1.10;;;4.80;93.80;;;;;;5051592;28;20208;-85
2021/03/12 05:22:51;;;;;;;2.50;1.43;;;4.80;93.20;;;;;;5052026;28;20240;-85
2021/03/12 05:25:18;;;;;;;2.30;1.50;;;4.90;93.20;;;;;;5053695;28;20215;-88
2021/03/12 05:27:44;;;;;;;3.20;1.60;;;4.80;93.40;;;;;;5050568;28;20241;-87
2021/03/12 05:30:12;;;;;;;3.47;1.30;;;4.70;93.60;;;;;;5054723;28;20559;-85
2021/03/12 05:32:40;;;;;;;2.13;1.30;;;4.80;93.40;;;;;;5043477;28;20236;-88
2021/03/12 05:35:08;;;;;;;3.43;1.50;;;4.90;93.30;;;;;;5051629;28;20201;-87
2021/03/12 05:37:35;;;;;;;2.27;1.17;;;4.90;93.10;;;;;;5049673;28;20229;-84
2021/03/12 05:40:01;;;;;;;3.13;1.60;;;5.00;93.30;;;;;;5057083;28;20242;-84
2021/03/12 05:42:28;;;;;;;3.30;1.60;;;4.80;93.70;;;;;;5037378;28;20230;-86
2021/03/12 05:44:58;;;;;;;1.83;1.10;;;4.80;93.70;;;;;;5039657;28;20201;-92
2021/03/12 05:47:24;;;;;;;4.00;1.60;;;4.90;93.80;;;;;;5049041;28;20233;-85
2021/03/12 05:49:53;;;;;;;3.53;1.10;;;4.80;94.00;;;;;;5046353;28;20194;-85
2021/03/12 05:52:20;;;;;;;2.80;1.83;;;4.90;94.30;;;;;;5042374;28;20232;-84
2021/03/12 05:54:48;;;;;;;1.90;1.20;;;5.10;94.20;;;;;;5049522;28;20257;-86
2021/03/12 05:57:14;;;;;;;4.03;1.10;;;5.20;93.90;;;;;;5051004;28;20230;-88
2021/03/12 05:59:40;;;;;;;4.30;1.37;;;5.30;93.70;;;;;;5045065;28;20714;-85
2021/03/12 06:02:07;;;;;;;3.33;1.70;;;5.30;93.60;;;;;;5048042;28;20222;-88
2021/03/12 06:04:33;;;;;;;1.50;1.10;;;5.50;93.60;;;;;;5042664;28;20196;-86
2021/03/12 06:07:00;;;;;;;2.87;1.50;;;5.50;93.30;;;;;;5044194;28;20230;-88
2021/03/12 06:09:26;;;;;;;2.37;1.53;;;5.50;93.50;;;;;;5043680;28;20201;-85
2021/03/12 06:11:55;;;;;;;1.87;1.20;;;5.60;93.30;;;;;;5043605;28;20230;-86
2021/03/12 06:14:50;;;;;;;3.33;1.10;;;5.60;93.30;;;;;;5023563;28;20198;-85
2021/03/12 06:17:33;;;;;;;2.00;1.07;;;5.60;93.30;;;;;;5018025;28;20297;-87
2021/03/12 06:20:00;;;;;;;2.07;1.30;;;5.70;93.10;;;;;;5050317;28;20224;-85
2021/03/12 06:22:26;;;;;;;2.97;1.60;;;5.70;93.00;;;;;;5054588;28;20236;-88
2021/03/12 06:24:53;;;;;;;2.73;1.50;;;5.80;92.90;;;;;;5042119;28;20224;-84
2021/03/12 06:27:28;;;;;;;3.17;1.20;;;5.70;93.30;;;;;;5054028;28;20233;-90
2021/03/12 06:30:00;;;;;;;1.07;0.90;;;5.70;93.60;;;;;;5044343;28;20730;-88
2021/03/12 06:32:44;;;;;;;2.63;1.13;;;5.70;93.80;;;;;;5033130;28;20222;-87
2021/03/12 06:35:13;;;;;;;2.67;1.30;;;5.80;93.50;;;;;;5047014;28;20232;-87
2021/03/12 06:37:41;;;;;;;2.70;1.23;;;5.80;93.60;;;;;;5050784;28;20592;-92
2021/03/12 06:40:15;;;;;;;1.70;1.20;;;5.80;93.60;;;;;;5053398;28;20205;-89
2021/03/12 06:43:07;;;;;;;2.63;1.20;;;5.90;93.60;;;;;;5044812;28;20228;-86
2021/03/12 06:45:54;;;;;;;2.63;1.30;;;6.10;92.80;;;;;;5045226;28;20205;-86
2021/03/12 06:48:22;;;;;;;1.90;1.17;;;6.10;92.70;;;;;;5048237;28;20329;-85
2021/03/12 06:50:50;;;;;;;3.90;1.57;;;6.20;92.60;;;;;;5052350;28;20198;-87
2021/03/12 06:53:30;;;;;;;2.73;1.50;;;6.30;92.40;;;;;;5044695;28;20252;-85
2021/03/12 06:56:00;;;;;;;2.43;1.20;;;6.40;91.90;;;;;;5045988;28;20201;-86
2021/03/12 06:58:29;;;;;;;2.57;1.20;;;6.40;91.90;;;;;;5034863;28;20823;-85
2021/03/12 07:00:56;;;;;;;3.47;1.60;;;6.40;92.20;;;;;;5043031;28;20669;-85
2021/03/12 07:03:26;;;;;;;2.20;1.57;;;6.30;91.70;;;;;;5044120;28;20926;-85
2021/03/12 07:06:01;;;;;;;4.10;1.80;;;6.40;91.50;;;;;;5038892;28;20198;-85
2021/03/12 07:08:29;;;;;;;9.57;1.63;;;6.50;91.00;;;;;;5039385;28;20229;-85
2021/03/12 07:10:56;;;;;;;5.13;1.50;;;6.40;91.20;;;;;;5039164;28;20272;-87
2021/03/12 07:13:22;;;;;;;1.90;1.53;;;6.40;91.50;;;;;;5027816;28;20241;-86
2021/03/12 07:15:52;;;;;;;4.43;1.30;;;6.40;91.40;;;;;;5033903;28;20577;-84
2021/03/12 07:18:21;;;;;;;3.77;1.60;;;6.50;91.00;;;;;;5036124;28;20226;-87
2021/03/12 07:20:49;;;;;;;2.00;1.43;;;6.60;90.00;;;;;;5044100;28;20865;-84
2021/03/12 07:23:17;;;;;;;2.83;1.53;;;6.50;89.90;;;;;;5046178;28;20234;-92
2021/03/12 07:25:46;;;;;;;4.63;1.43;;;6.70;90.00;;;;;;5039632;28;20208;-88
2021/03/12 07:28:15;;;;;;;7.23;1.60;;;6.80;89.70;;;;;;5044328;28;20225;-86
2021/03/12 07:30:44;;;;;;;1.53;1.17;;;6.90;86.90;;;;;;5053785;28;20224;-86
2021/03/12 07:33:14;;;;;;;2.30;1.33;;;7.00;85.60;;;;;;5049120;28;20237;-90
2021/03/12 07:35:42;;;;;;;2.17;1.20;;;6.80;83.60;;;;;;5041726;28;20682;-87
2021/03/12 07:38:11;;;;;;;4.13;1.33;;;6.70;83.70;;;;;;5049428;28;20618;-82
2021/03/12 07:40:37;;;;;;;3.40;1.33;;;6.70;81.60;;;;;;5024741;28;20212;-87
2021/03/12 07:43:07;;;;;;;2.93;1.40;;;6.70;82.80;;;;;;5042405;28;20224;-84
2021/03/12 07:45:34;;;;;;;3.53;1.30;;;6.60;83.80;;;;;;5040918;28;20668;-86
2021/03/12 07:48:00;;;;;;;2.67;1.23;;;6.70;82.30;;;;;;5045101;28;20225;-88
2021/03/12 07:50:32;;;;;;;3.03;1.10;;;6.70;82.70;;;;;;5050057;28;20610;-85
2021/03/12 08:13:29;;;;;;;4.60;1.07;;;7.20;76.30;;;;;;5065414;28;20563;-86
2021/03/12 08:16:06;;;;;;;2.20;1.00;;;7.10;76.60;;;;;;5052907;28;20217;-87
2021/03/12 08:18:33;;;;;;;3.17;1.10;;;7.10;75.40;;;;;;5047620;28;20656;-88
2021/03/12 08:21:33;;;;;;;3.03;1.23;;;7.00;76.20;;;;;;5042441;28;20543;-88
2021/03/12 08:24:49;;;;;;;2.60;0.97;;;7.20;75.00;;;;;;5052008;28;20275;-87
2021/03/12 08:27:39;;;;;;;3.27;1.03;;;7.60;72.40;;;;;;5011013;28;20232;-89
2021/03/12 08:30:08;;;;;;;1.97;0.90;;;8.10;73.00;;;;;;5054208;28;20556;-88
2021/03/12 08:36:07;;;;;;;3.70;1.00;;;9.10;74.00;;;;;;5056518;28;20216;-88
2021/03/12 08:41:59;;;;;;;8.35;1.48;;;9.50;61.00;;;;;;5047970;28;20301;-87
2021/03/12 08:44:26;;;;;;;2.90;1.25;;;9.60;74.50;;;;;;5057443;28;20232;-88
2021/03/12 08:47:08;;;;;;;6.35;1.35;;;9.90;62.30;;;;;;5043541;28;20236;-88
2021/03/12 08:52:59;;;;;;;4.65;1.00;;;10.50;51.20;;;;;;5058177;28;20228;-88
2021/03/12 08:56:02;;;;;;;2.72;1.45;;;10.30;55.40;;;;;;5058907;28;20224;-89
2021/03/12 09:01:57;;;;;;;3.53;1.20;;;11.40;52.50;;;;;;5084490;28;20215;-87
2021/03/12 09:15:12;;;;;;;3.35;1.27;;;13.00;43.00;;;;;;5063162;28;20217;-90
2021/03/12 09:21:05;;;;;;;3.45;1.20;;;13.40;40.40;;;;;;5067170;28;20561;-89
2021/03/12 09:44:19;;;;;;;5.28;1.17;;;12.60;38.00;;;;;;5372020;23;20229;-89
2021/03/12 09:53:37;;;;;;;3.55;1.15;;;15.30;29.20;;;;;;5045834;28;20217;-89
2021/03/12 10:03:20;;;;;;;2.35;1.10;;;12.90;33.40;;;;;;5039840;28;20229;-89
2021/03/12 10:16:20;;;;;;;1.92;0.77;;;12.50;35.40;;;;;;5044803;28;20221;-90
2021/03/12 10:18:59;;;;;;;1.70;0.93;;;14.00;32.20;;;;;;5041278;28;20308;-90
2021/03/12 10:25:28;;;;;;;2.05;0.95;;;14.60;31.40;;;;;;5037677;28;20185;-91
2021/03/12 10:27:57;;;;;;;4.13;1.45;;;14.80;27.70;;;;;;5038170;28;20238;-88
2021/03/12 10:30:29;;;;;;;3.72;1.08;;;14.90;28.40;;;;;;5024243;28;20211;-87
2021/03/12 10:33:01;;;;;;;2.28;1.38;;;15.40;28.30;;;;;;5045066;28;20226;-89
2021/03/12 10:35:31;;;;;;;4.65;1.40;;;15.40;28.20;;;;;;5033639;28;20861;-88
2021/03/12 10:38:14;;;;;;;3.20;1.20;;;14.50;30.10;;;;;;5027259;28;20268;-88
2021/03/12 10:40:42;;;;;;;2.42;1.15;;;13.20;32.10;;;;;;5043223;28;20202;-90
2021/03/12 10:43:18;;;;;;;4.88;1.50;;;12.20;35.60;;;;;;5029442;28;20230;-89
2021/03/12 10:45:48;;;;;;;5.97;2.17;;;11.40;36.10;;;;;;5022275;28;20202;-88
2021/03/12 10:48:15;;;;;;;3.83;1.50;;;10.90;38.60;;;;;;5018596;28;20261;-90
2021/03/12 10:50:50;;;;;;;3.08;1.33;;;10.80;40.70;;;;;;5028664;28;20272;-88
2021/03/12 10:53:22;;;;;;;4.22;1.33;;;10.50;39.40;;;;;;5019585;28;20214;-90
2021/03/12 10:56:44;;;;;;;2.50;1.20;;;10.20;39.10;;;;;;5038294;28;20583;-88
2021/03/12 10:59:23;;;;;;;4.90;1.23;;;10.20;40.20;;;;;;5031688;28;20219;-93
2021/03/12 11:01:55;;;;;;;3.42;1.17;;;10.10;40.80;;;;;;5033561;28;20290;-89
2021/03/12 11:04:23;;;;;;;3.85;1.20;;;9.70;41.80;;;;;;5028486;28;20646;-89
2021/03/12 11:06:51;;;;;;;2.00;1.25;;;9.50;42.50;;;;;;5030201;28;20238;-89
2021/03/12 11:09:18;;;;;;;7.25;1.80;;;9.50;43.40;;;;;;5017327;28;20249;-89
2021/03/12 11:11:45;;;;;;;2.08;1.30;;;9.60;42.60;;;;;;5020351;28;20686;-88
2021/03/12 11:14:12;;;;;;;4.68;1.40;;;9.60;42.70;;;;;;5020932;28;20199;-90
2021/03/12 11:20:16;;;;;;;2.15;0.98;;;9.60;43.50;;;;;;5055680;28;20165;-88
2021/03/12 11:25:21;;;;;;;3.45;1.27;;;9.80;43.00;;;;;;5298555;22;20282;-87
2021/03/12 11:31:14;;;;;;;3.22;1.90;;;9.40;44.10;;;;;;5034477;28;20231;-87
2021/03/12 11:37:13;;;;;;;5.07;1.63;;;9.10;46.70;;;;;;5048990;28;20659;-85
2021/03/12 11:39:40;;;;;;;3.10;1.08;;;9.30;43.30;;;;;;5053079;28;20233;-91
2021/03/12 11:45:35;;;;;;;3.03;1.40;;;10.00;41.00;;;;;;5048045;28;20563;-89
2021/03/12 11:48:27;;;;;;;3.40;1.60;;;10.30;37.50;;;;;;5028143;28;20575;-88
2021/03/12 11:51:05;;;;;;;3.15;1.45;;;10.40;39.20;;;;;;5034509;28;20207;-92
2021/03/12 11:53:44;;;;;;;2.28;1.55;;;10.60;36.90;;;;;;5036441;28;20218;-88
2021/03/12 11:56:12;;;;;;;3.53;1.70;;;10.60;38.80;;;;;;5043585;28;20279;-88
2021/03/12 12:01:59;;;;;;;2.30;1.17;;;10.90;38.80;;;;;;5009836;28;20252;-87
2021/03/12 12:04:53;;;;;;;1.83;1.00;;;11.20;38.00;;;;;;5062377;28;20206;-86
2021/03/12 12:07:20;;;;;;;6.13;1.20;;;11.30;36.20;;;;;;5039873;28;20226;-86
2021/03/12 12:16:46;;;;;;;2.70;1.10;;;11.00;39.60;;;;;;5048764;28;20774;-87
2021/03/12 12:19:52;;;;;;;2.13;1.02;;;11.40;36.80;;;;;;5045696;28;20194;-86
2021/03/12 12:22:20;;;;;;;3.78;1.70;;;11.50;34.80;;;;;;5040315;28;20229;-86
2021/03/12 12:24:55;;;;;;;2.60;1.50;;;11.30;36.70;;;;;;5048008;28;20198;-87
2021/03/12 12:27:22;;;;;;;4.55;1.52;;;11.20;36.80;;;;;;5044817;28;20701;-85
2021/03/12 12:29:49;;;;;;;3.05;1.40;;;11.30;36.30;;;;;;5045806;28;20249;-86
2021/03/12 12:32:20;;;;;;;2.33;1.63;;;11.80;34.80;;;;;;5039836;28;20625;-86
2021/03/12 12:34:50;;;;;;;5.38;1.90;;;12.00;33.00;;;;;;5038158;28;20858;-88
2021/03/12 12:37:40;;;;;;;3.83;1.80;;;12.10;34.90;;;;;;5033853;28;20214;-91
2021/03/12 12:40:18;;;;;;;2.63;1.60;;;12.20;36.30;;;;;;5028398;28;20210;-89
2021/03/12 12:42:45;;;;;;;5.10;1.42;;;12.30;35.70;;;;;;5033861;28;20388;-90
2021/03/12 12:45:17;;;;;;;2.63;1.38;;;12.30;35.60;;;;;;5035503;28;20671;-90
2021/03/12 12:47:47;;;;;;;1.88;1.20;;;12.30;33.70;;;;;;5044937;28;20751;-90
2021/03/12 12:50:15;;;;;;;2.30;1.20;;;12.10;32.60;;;;;;5047009;28;20728;-89
2021/03/12 12:55:41;;;;;;;2.38;1.27;;;12.50;30.60;;;;;;5037139;28;20213;-89
2021/03/12 12:58:08;;;;;;;5.15;1.42;;;12.20;32.70;;;;;;5044474;28;20702;-92
2021/03/12 13:00:37;;;;;;;4.55;1.50;;;12.20;33.90;;;;;;5046390;28;20652;-90
2021/03/12 13:03:16;;;;;;;2.63;1.30;;;12.30;33.40;;;;;;5039072;28;20629;-89
2021/03/12 13:05:48;;;;;;;2.53;1.10;;;12.20;31.10;;;;;;5049236;28;20324;-89
2021/03/12 13:08:22;;;;;;;1.88;1.15;;;11.90;29.40;;;;;;5047432;28;20233;-90
2021/03/12 13:10:49;;;;;;;3.28;1.20;;;11.90;28.70;;;;;;5053153;28;20201;-90
2021/03/12 13:13:16;;;;;;;3.35;1.20;;;12.10;30.60;;;;;;5030281;28;20229;-91
2021/03/12 13:15:43;;;;;;;2.72;1.02;;;12.10;30.70;;;;;;5034061;28;20210;-89
2021/03/12 13:18:10;;;;;;;2.97;1.50;;;11.90;32.60;;;;;;5041922;28;20241;-87
2021/03/12 13:20:45;;;;;;;4.22;1.30;;;11.90;33.00;;;;;;5043556;28;20205;-88
2021/03/12 13:23:13;;;;;;;2.72;1.40;;;12.00;33.40;;;;;;5046570;28;20236;-87
2021/03/12 13:25:41;;;;;;;3.00;1.20;;;11.80;31.90;;;;;;5052943;28;20339;-90
2021/03/12 13:28:09;;;;;;;5.15;1.33;;;11.70;31.50;;;;;;5048449;28;20238;-89
2021/03/12 13:30:36;;;;;;;1.90;1.20;;;11.80;32.60;;;;;;5048722;28;20213;-89
2021/03/12 13:33:04;;;;;;;2.40;1.40;;;11.80;30.60;;;;;;5046325;28;20389;-89
2021/03/12 13:35:31;;;;;;;2.38;1.15;;;11.70;30.90;;;;;;5055722;28;20201;-90
2021/03/12 13:37:59;;;;;;;2.40;1.40;;;11.80;32.00;;;;;;5054245;28;20229;-89
2021/03/12 13:40:26;;;;;;;4.60;1.58;;;11.80;31.80;;;;;;5047653;28;20252;-90
2021/03/12 13:42:56;;;;;;;3.72;1.50;;;11.40;31.20;;;;;;5031355;28;20229;-90
2021/03/12 13:45:23;;;;;;;4.85;1.67;;;11.40;32.50;;;;;;5037253;28;20336;-89
2021/03/12 13:47:51;;;;;;;1.50;1.13;;;11.40;31.20;;;;;;5057825;28;20243;-90
2021/03/12 13:50:18;;;;;;;4.63;1.80;;;11.40;32.40;;;;;;5031381;28;20344;-90
2021/03/12 13:52:45;;;;;;;2.63;1.48;;;11.20;31.70;;;;;;5052818;28;20672;-90
2021/03/12 13:55:22;;;;;;;2.00;1.20;;;11.30;31.50;;;;;;5056888;28;20193;-89
2021/03/12 13:57:59;;;;;;;3.13;1.08;;;11.40;30.40;;;;;;5037344;28;20217;-89
2021/03/12 14:00:45;;;;;;;7.63;1.55;;;11.40;31.70;;;;;;5046926;28;20607;-90
2021/03/12 14:03:17;;;;;;;4.13;1.38;;;11.30;31.30;;;;;;5043519;28;20268;-91
2021/03/12 14:05:48;;;;;;;2.35;1.63;;;11.10;32.20;;;;;;5043945;28;20217;-90
2021/03/12 14:08:22;;;;;;;2.70;1.50;;;11.20;34.90;;;;;;5043906;28;20315;-90
2021/03/12 14:10:59;;;;;;;3.40;1.45;;;11.30;28.80;;;;;;5043008;28;20231;-90
2021/03/12 14:13:49;;;;;;;3.72;1.63;;;11.20;30.50;;;;;;5027359;28;20393;-89
2021/03/12 14:16:25;;;;;;;6.45;2.65;;;11.20;30.90;;;;;;5018290;28;20239;-90
2021/03/12 14:19:21;;;;;;;3.50;2.00;;;11.30;31.60;;;;;;5038825;28;20225;-93
2021/03/12 14:27:51;;;;;;;4.78;1.48;;;11.30;31.50;;;;;;5031313;28;20233;-89
2021/03/12 14:30:32;;;;;;;3.00;1.40;;;11.20;32.90;;;;;;5038272;28;20196;-89
2021/03/12 14:33:20;;;;;;;5.18;2.55;;;11.20;32.20;;;;;;5032990;28;20233;-93
2021/03/12 14:35:58;;;;;;;2.38;1.35;;;11.20;31.70;;;;;;5020679;28;20981;-89
2021/03/12 14:38:31;;;;;;;1.58;1.38;;;11.20;33.00;;;;;;5018757;28;20233;-91
2021/03/12 14:41:24;;;;;;;4.07;1.63;;;11.10;31.70;;;;;;5044625;28;20201;-89
2021/03/12 14:44:05;;;;;;;4.20;1.40;;;11.00;32.80;;;;;;5043044;28;20214;-88
2021/03/12 14:46:40;;;;;;;7.07;1.80;;;10.90;33.20;;;;;;5034798;28;20243;-91
2021/03/12 14:49:21;;;;;;;5.80;1.98;;;11.00;33.30;;;;;;5043968;28;20197;-92
2021/03/12 14:51:58;;;;;;;3.95;1.42;;;10.90;33.60;;;;;;5033426;28;20602;-90
2021/03/12 14:54:34;;;;;;;2.15;1.30;;;10.60;34.30;;;;;;5047456;28;20707;-89
2021/03/12 14:57:03;;;;;;;3.88;1.48;;;10.50;35.40;;;;;;5033826;28;20237;-91
2021/03/12 14:59:36;;;;;;;3.13;1.25;;;10.30;36.70;;;;;;5035924;28;20191;-90
2021/03/12 15:02:09;;;;;;;4.38;1.80;;;10.30;35.80;;;;;;5030611;28;20709;-90
2021/03/12 15:04:52;;;;;;;5.05;1.52;;;10.30;36.40;;;;;;5036049;28;20421;-89
2021/03/12 15:07:58;;;;;;;3.58;1.60;;;10.10;36.30;;;;;;5042264;28;20253;-90
2021/03/12 15:10:35;;;;;;;6.18;1.52;;;10.40;36.60;;;;;;5046898;28;20205;-90
2021/03/12 15:13:09;;;;;;;3.90;2.30;;;10.70;36.20;;;;;;5023429;28;20226;-93
2021/03/12 15:15:40;;;;;;;3.95;1.42;;;10.70;36.10;;;;;;5044349;28;20572;-89
2021/03/12 15:18:17;;;;;;;3.40;1.30;;;10.70;36.70;;;;;;5040356;28;20218;-89
2021/03/12 15:20:50;;;;;;;2.47;1.30;;;10.60;37.00;;;;;;5041141;28;20206;-90
2021/03/12 15:23:20;;;;;;;5.30;1.63;;;10.50;37.50;;;;;;5040108;28;20225;-89